createdAt,value
2018-05-16T00:00:02.995Z,94250.45
2018-05-16T00:02:31.463Z,94242.98
2018-05-16T00:04:59.867Z,94249.88
2018-05-16T00:07:28.331Z,94219.66
2018-05-16T00:09:56.744Z,94246.20
2018-05-16T00:12:25.217Z,94246.27
2018-05-16T00:14:53.658Z,94234.58
2018-05-16T00:17:22.120Z,94232.45
2018-05-16T00:19:50.551Z,94250.59
2018-05-16T00:22:18.951Z,94239.53
2018-05-16T00:24:47.384Z,94252.16
2018-05-16T00:27:15.760Z,94246.81
2018-05-16T00:29:44.191Z,94249.55
2018-05-16T00:32:12.623Z,94245.70
2018-05-16T00:34:41.103Z,94239.60
2018-05-16T00:37:09.506Z,94264.25
2018-05-16T00:39:37.961Z,94240.05
2018-05-16T00:42:06.399Z,94223.00
2018-05-16T00:44:34.828Z,94220.25
2018-05-16T00:47:03.235Z,94233.59
2018-05-16T00:49:31.656Z,94237.38
2018-05-16T00:52:00.111Z,94234.13
2018-05-16T00:54:28.500Z,94244.73
2018-05-16T00:56:56.884Z,94239.16
2018-05-16T00:59:25.359Z,94238.30
2018-05-16T01:01:53.731Z,94221.53
2018-05-16T01:04:22.179Z,94234.52
2018-05-16T01:06:50.563Z,94229.48
2018-05-16T01:09:19.070Z,94236.13
2018-05-16T01:11:47.481Z,94185.36
2018-05-16T01:14:15.902Z,94218.77
2018-05-16T01:16:44.363Z,94216.72
2018-05-16T01:19:12.785Z,94224.17
2018-05-16T01:21:41.246Z,94254.70
2018-05-16T01:24:09.718Z,94254.10
2018-05-16T01:26:38.100Z,94259.61
2018-05-16T01:29:06.534Z,94237.80
2018-05-16T01:31:34.926Z,94280.41
2018-05-16T01:34:03.368Z,94261.03
2018-05-16T01:36:31.752Z,94278.45
2018-05-16T01:39:00.196Z,94260.97
2018-05-16T01:41:28.604Z,94294.01
2018-05-16T01:43:57.021Z,94289.86
2018-05-16T01:46:25.459Z,94283.08
2018-05-16T01:49:05.627Z,94288.97
2018-05-16T01:51:34.076Z,94293.05
2018-05-16T01:54:02.476Z,94291.51
2018-05-16T01:56:30.883Z,94314.85
2018-05-16T01:58:59.278Z,94310.83
2018-05-16T02:01:28.109Z,94306.37
2018-05-16T02:03:56.507Z,94314.08
2018-05-16T02:06:24.960Z,94300.65
2018-05-16T02:08:53.436Z,94311.05
2018-05-16T02:11:21.863Z,94324.38
2018-05-16T02:13:50.289Z,94320.60
2018-05-16T02:16:18.677Z,94325.07
2018-05-16T02:18:47.079Z,94308.28
2018-05-16T02:21:15.554Z,94318.64
2018-05-16T02:23:44.018Z,94320.48
2018-05-16T02:26:12.451Z,94324.91
2018-05-16T02:28:40.882Z,94324.98
2018-05-16T02:31:09.331Z,94332.48
2018-05-16T02:33:37.728Z,94311.31
2018-05-16T02:36:06.126Z,94330.55
2018-05-16T02:38:34.560Z,94328.84
2018-05-16T02:41:02.948Z,94344.86
2018-05-16T02:43:31.342Z,94344.34
2018-05-16T02:45:59.776Z,94350.52
2018-05-16T02:48:28.269Z,94369.44
2018-05-16T02:50:56.669Z,94372.72
2018-05-16T02:53:25.123Z,94379.03
2018-05-16T02:55:53.498Z,94388.45
2018-05-16T02:58:21.911Z,94393.47
2018-05-16T03:00:50.320Z,94396.36
2018-05-16T03:03:18.760Z,94396.78
2018-05-16T03:05:47.207Z,94394.95
2018-05-16T03:08:15.602Z,94391.80
2018-05-16T03:10:44.037Z,94397.91
2018-05-16T03:13:12.451Z,94401.37
2018-05-16T03:15:40.903Z,94399.67
2018-05-16T03:18:09.352Z,94401.02
2018-05-16T03:20:37.781Z,94397.79
2018-05-16T03:23:06.215Z,94408.83
2018-05-16T03:25:34.689Z,94414.34
2018-05-16T03:28:03.108Z,94402.94
2018-05-16T03:30:31.527Z,94413.30
2018-05-16T03:32:59.914Z,94417.70
2018-05-16T03:35:28.348Z,94414.67
2018-05-16T03:37:56.772Z,94425.38
2018-05-16T03:40:25.271Z,94428.25
2018-05-16T03:42:53.723Z,94433.77
2018-05-16T03:45:22.167Z,94439.72
2018-05-16T03:47:50.565Z,94440.34
2018-05-16T03:50:19.016Z,94436.06
2018-05-16T03:52:47.415Z,94441.69
2018-05-16T03:55:15.880Z,94446.30
2018-05-16T04:00:59.583Z,94461.36
2018-05-16T04:03:39.879Z,94449.98
2018-05-16T04:06:08.329Z,94469.75
2018-05-16T04:08:36.754Z,94465.72
2018-05-16T04:11:05.266Z,94468.88
2018-05-16T04:13:33.733Z,94475.42
2018-05-16T04:16:02.215Z,94476.47
2018-05-16T04:18:30.592Z,94475.80
2018-05-16T04:20:58.998Z,94470.29
2018-05-16T04:23:27.427Z,94476.33
2018-05-16T04:25:55.824Z,94485.25
2018-05-16T04:28:24.235Z,94487.36
2018-05-16T04:30:52.615Z,94489.31
2018-05-16T04:33:21.089Z,94499.66
2018-05-16T04:35:49.483Z,94487.76
2018-05-16T04:38:17.938Z,94499.00
2018-05-16T04:40:46.487Z,94457.99
2018-05-16T04:43:15.387Z,94504.13
2018-05-16T04:45:43.768Z,94506.63
2018-05-16T04:48:12.221Z,94505.46
2018-05-16T04:50:41.045Z,94503.73
2018-05-16T04:53:09.610Z,94504.47
2018-05-16T04:55:38.026Z,94505.70
2018-05-16T04:58:06.480Z,94508.78
2018-05-16T05:00:34.915Z,94512.69
2018-05-16T05:03:03.312Z,94516.27
2018-05-16T05:05:31.741Z,94521.84
2018-05-16T05:08:00.161Z,94526.28
2018-05-16T05:10:28.551Z,94522.11
2018-05-16T05:12:57.011Z,94526.13
2018-05-16T05:15:25.416Z,94528.05
2018-05-16T05:17:53.864Z,94511.60
2018-05-16T05:20:22.287Z,94535.45
2018-05-16T05:22:50.787Z,94537.56
2018-05-16T05:25:19.251Z,94538.09
2018-05-16T05:27:47.675Z,94543.11
2018-05-16T05:30:16.072Z,94541.59
2018-05-16T05:32:44.528Z,94539.51
2018-05-16T05:35:13.135Z,94545.88
2018-05-16T05:37:41.543Z,94542.02
2018-05-16T05:40:10.001Z,94542.70
2018-05-16T05:42:38.417Z,94541.42
2018-05-16T05:45:06.797Z,94542.28
2018-05-16T05:47:35.215Z,94545.53
2018-05-16T05:50:03.632Z,94541.64
2018-05-16T05:52:32.128Z,94548.14
2018-05-16T05:55:00.582Z,94553.29
2018-05-16T05:57:28.972Z,94549.14
2018-05-16T05:59:57.455Z,94550.60
2018-05-16T06:02:25.881Z,94552.41
2018-05-16T06:04:54.300Z,94551.72
2018-05-16T06:07:22.678Z,94558.28
2018-05-16T06:09:51.081Z,94558.91
2018-05-16T06:12:19.527Z,94567.09
2018-05-16T06:14:47.955Z,94573.90
2018-05-16T06:17:16.337Z,94579.70
2018-05-16T06:19:44.822Z,94566.28
2018-05-16T06:22:13.330Z,94567.03
2018-05-16T06:24:41.787Z,94578.61
2018-05-16T06:27:10.217Z,94571.23
2018-05-16T06:29:38.655Z,94576.14
2018-05-16T06:32:07.103Z,94573.42
2018-05-16T06:34:35.483Z,94572.27
2018-05-16T06:37:03.930Z,94578.27
2018-05-16T06:39:32.342Z,94578.58
2018-05-16T06:42:00.915Z,94562.17
2018-05-16T06:44:29.295Z,94580.08
2018-05-16T06:46:57.696Z,94585.71
2018-05-16T06:49:26.135Z,94573.96
2018-05-16T06:51:54.554Z,94581.80
2018-05-16T06:54:22.987Z,94573.86
2018-05-16T06:56:51.423Z,94563.80
2018-05-16T06:59:19.859Z,94569.07
2018-05-16T07:01:48.261Z,94575.09
2018-05-16T07:04:16.697Z,94574.63
2018-05-16T07:06:45.135Z,94576.23
2018-05-16T07:09:13.515Z,94585.38
2018-05-16T07:11:41.940Z,94584.38
2018-05-16T07:14:10.393Z,94586.18
2018-05-16T07:16:38.786Z,94583.05
2018-05-16T07:19:07.243Z,94588.30
2018-05-16T07:21:35.671Z,94572.97
2018-05-16T07:24:04.098Z,94588.42
2018-05-16T07:26:32.477Z,94591.66
2018-05-16T07:29:00.903Z,94586.80
2018-05-16T07:31:29.327Z,94595.75
2018-05-16T07:33:57.760Z,94589.84
2018-05-16T07:36:26.191Z,94591.96
2018-05-16T07:38:54.999Z,94597.40
2018-05-16T07:41:23.416Z,94586.81
2018-05-16T07:43:51.828Z,94592.98
2018-05-16T07:46:20.265Z,94592.53
2018-05-16T07:48:48.747Z,94563.88
2018-05-16T07:51:17.278Z,94579.45
2018-05-16T07:53:45.639Z,94588.03
2018-05-16T07:56:14.080Z,94588.13
2018-05-16T07:58:42.471Z,94591.24
2018-05-16T08:01:11.008Z,94598.52
2018-05-16T08:03:39.626Z,94608.05
2018-05-16T08:06:08.047Z,94607.47
2018-05-16T08:08:36.469Z,94599.45
2018-05-16T08:11:05.011Z,94604.08
2018-05-16T08:13:33.418Z,94596.89
2018-05-16T08:16:01.813Z,94602.80
2018-05-16T08:18:30.231Z,94598.30
2018-05-16T08:20:58.621Z,94602.19
2018-05-16T08:23:27.133Z,94602.27
2018-05-16T08:25:55.539Z,94612.91
2018-05-16T08:28:23.959Z,94616.27
2018-05-16T08:30:52.400Z,94608.45
2018-05-16T08:33:20.862Z,94616.97
2018-05-16T08:35:49.261Z,94615.19
2018-05-16T08:38:17.843Z,94620.73
2018-05-16T08:40:46.263Z,94616.14
2018-05-16T08:43:14.705Z,94617.88
2018-05-16T08:45:43.117Z,94604.13
2018-05-16T08:48:11.551Z,94614.33
2018-05-16T08:50:39.998Z,94619.48
2018-05-16T08:53:08.416Z,94621.27
2018-05-16T08:55:36.861Z,94610.34
2018-05-16T08:58:05.307Z,94609.89
2018-05-16T09:00:33.771Z,94612.59
2018-05-16T09:03:02.209Z,94613.73
2018-05-16T09:05:30.672Z,94629.59
2018-05-16T09:07:59.039Z,94614.06
2018-05-16T09:10:27.475Z,94620.00
2018-05-16T09:12:55.888Z,94623.20
2018-05-16T09:15:24.328Z,94620.63
2018-05-16T09:17:52.733Z,94592.96
2018-05-16T09:20:21.218Z,94615.60
2018-05-16T09:22:49.650Z,94589.98
2018-05-16T09:25:18.109Z,94591.31
2018-05-16T09:27:46.507Z,94605.45
2018-05-16T09:30:14.958Z,94603.20
2018-05-16T09:32:43.424Z,94611.95
2018-05-16T09:35:11.866Z,94607.58
2018-05-16T09:37:40.263Z,94574.73
2018-05-16T09:40:08.632Z,94613.25
2018-05-16T09:42:37.047Z,94600.84
2018-05-16T09:45:05.679Z,94599.20
2018-05-16T09:47:34.105Z,94594.52
2018-05-16T09:50:02.549Z,94591.47
2018-05-16T09:52:30.934Z,94569.92
2018-05-16T09:54:59.321Z,94597.01
2018-05-16T09:57:27.833Z,94578.52
2018-05-16T09:59:56.341Z,94591.75
2018-05-16T10:02:24.776Z,94578.00
2018-05-16T10:04:53.155Z,94583.80
2018-05-16T10:07:21.608Z,94581.23
2018-05-16T10:09:50.112Z,94588.67
2018-05-16T10:12:18.498Z,94607.58
2018-05-16T10:14:46.880Z,94602.03
2018-05-16T10:17:15.286Z,94583.27
2018-05-16T10:19:43.748Z,94583.35
2018-05-16T10:22:12.262Z,94593.17
2018-05-16T10:24:40.714Z,94584.27
2018-05-16T10:27:09.147Z,94594.00
2018-05-16T10:29:37.538Z,94576.61
2018-05-16T10:32:06.060Z,94590.21
2018-05-16T10:34:34.589Z,94590.46
2018-05-16T10:37:03.021Z,94586.30
2018-05-16T10:39:31.444Z,94589.91
2018-05-16T10:41:59.840Z,94578.86
2018-05-16T10:44:28.283Z,94580.02
2018-05-16T10:46:56.683Z,94585.41
2018-05-16T10:49:25.161Z,94597.31
2018-05-16T10:51:53.564Z,94571.97
2018-05-16T10:54:22.008Z,94600.59
2018-05-16T10:56:50.420Z,94594.66
2018-05-16T10:59:18.869Z,94604.39
2018-05-16T11:01:47.286Z,94582.99
2018-05-16T11:04:15.677Z,94601.67
2018-05-16T11:06:44.125Z,94604.97
2018-05-16T11:09:12.524Z,94591.09
2018-05-16T11:11:40.965Z,94601.45
2018-05-16T11:14:09.344Z,94600.42
2018-05-16T11:16:37.744Z,94589.89
2018-05-16T11:19:06.183Z,94599.68
2018-05-16T11:21:34.559Z,94573.78
2018-05-16T11:24:02.999Z,94590.90
2018-05-16T11:26:31.431Z,94592.23
2018-05-16T11:28:59.827Z,94603.14
2018-05-16T11:31:28.263Z,94591.17
2018-05-16T11:33:56.675Z,94608.23
2018-05-16T11:36:25.154Z,94590.70
2018-05-16T11:38:53.544Z,94599.16
2018-05-16T11:41:21.981Z,94579.27
2018-05-16T11:43:50.390Z,94582.08
2018-05-16T11:46:18.824Z,94577.26
2018-05-16T11:48:47.306Z,94592.17
2018-05-16T11:51:15.701Z,94548.16
2018-05-16T11:53:44.150Z,94573.70
2018-05-16T11:56:12.527Z,94565.19
2018-05-16T11:58:40.955Z,94562.80
2018-05-16T12:01:09.352Z,94579.81
2018-05-16T12:03:37.809Z,94570.35
2018-05-16T12:06:06.169Z,94582.27
2018-05-16T12:08:34.599Z,94569.67
2018-05-16T12:11:03.041Z,94558.61
2018-05-16T12:13:31.436Z,94570.90
2018-05-16T12:15:59.861Z,94572.80
2018-05-16T12:18:28.299Z,94579.41
2018-05-16T12:20:56.729Z,94555.37
2018-05-16T12:23:25.187Z,94569.23
2018-05-16T12:25:53.580Z,94571.37
2018-05-16T12:28:22.012Z,94575.08
2018-05-16T12:30:50.450Z,94562.08
2018-05-16T12:33:18.875Z,94573.45
2018-05-16T12:35:47.264Z,94567.42
2018-05-16T12:38:15.697Z,94555.41
2018-05-16T12:40:44.096Z,94548.88
2018-05-16T12:43:17.512Z,94567.78
2018-05-16T12:45:45.868Z,94550.98
2018-05-16T12:48:14.332Z,94552.08
2018-05-16T12:50:42.747Z,94550.96
2018-05-16T12:53:11.216Z,94551.33
2018-05-16T12:55:39.621Z,94548.31
2018-05-16T12:58:08.077Z,94549.94
2018-05-16T13:00:36.495Z,94548.00
2018-05-16T13:03:04.903Z,94543.64
2018-05-16T13:05:33.339Z,94552.92
2018-05-16T13:08:01.807Z,94554.01
2018-05-16T13:10:30.220Z,94539.07
2018-05-16T13:12:58.682Z,94553.13
2018-05-16T13:15:27.098Z,94542.55
2018-05-16T13:17:55.555Z,94541.09
2018-05-16T13:20:24.012Z,94537.78
2018-05-16T13:22:52.426Z,94545.22
2018-05-16T13:25:20.838Z,94532.38
2018-05-16T13:27:49.267Z,94532.73
2018-05-16T13:30:17.729Z,94538.27
2018-05-16T13:32:46.099Z,94547.77
2018-05-16T13:35:14.614Z,94543.21
2018-05-16T13:37:43.029Z,94536.30
2018-05-16T13:40:11.443Z,94536.95
2018-05-16T13:42:39.800Z,94545.44
2018-05-16T13:45:08.228Z,94540.67
2018-05-16T13:47:36.651Z,94547.40
2018-05-16T13:50:05.081Z,94530.93
2018-05-16T13:52:33.494Z,94532.81
2018-05-16T13:55:02.002Z,94541.58
2018-05-16T13:57:30.402Z,94527.97
2018-05-16T13:59:58.782Z,94545.23
2018-05-16T14:02:27.216Z,94526.64
2018-05-16T14:04:55.620Z,94522.67
2018-05-16T14:07:24.040Z,94538.51
2018-05-16T14:09:52.651Z,94529.67
2018-05-16T14:12:21.080Z,94517.86
2018-05-16T14:14:49.486Z,94530.74
2018-05-16T14:17:17.920Z,94515.93
2018-05-16T14:19:46.314Z,94517.80
2018-05-16T14:22:15.065Z,94524.85
2018-05-16T14:24:43.439Z,94522.16
2018-05-16T14:27:11.921Z,94519.45
2018-05-16T14:29:40.321Z,94518.44
2018-05-16T14:32:08.751Z,94516.14
2018-05-16T14:34:37.156Z,94507.73
2018-05-16T14:37:05.627Z,94498.47
2018-05-16T14:39:34.083Z,94513.67
2018-05-16T14:42:02.515Z,94508.52
2018-05-16T14:44:31.001Z,94522.60
2018-05-16T14:46:59.405Z,94500.82
2018-05-16T14:49:27.811Z,94511.19
2018-05-16T14:51:56.191Z,94510.05
2018-05-16T14:54:24.637Z,94511.90
2018-05-16T14:56:53.031Z,94502.92
2018-05-16T14:59:21.432Z,94510.08
2018-05-16T15:01:49.960Z,94505.59
2018-05-16T15:04:18.310Z,94501.10
2018-05-16T15:06:46.740Z,94494.42
2018-05-16T15:09:15.141Z,94496.56
2018-05-16T15:11:43.609Z,94506.05
2018-05-16T15:14:12.052Z,94519.05
2018-05-16T15:16:40.481Z,94510.56
2018-05-16T15:19:08.992Z,94507.70
2018-05-16T15:21:37.405Z,94505.48
2018-05-16T15:24:05.847Z,94498.58
2018-05-16T15:26:34.267Z,94496.73
2018-05-16T15:29:02.684Z,94499.69
2018-05-16T15:31:31.126Z,94497.88
2018-05-16T15:33:59.518Z,94508.59
2018-05-16T15:36:28.333Z,94498.41
2018-05-16T15:38:56.765Z,94497.96
2018-05-16T15:41:25.152Z,94490.20
2018-05-16T15:43:53.592Z,94493.47
2018-05-16T15:46:21.989Z,94490.02
2018-05-16T15:48:50.442Z,94486.02
2018-05-16T15:51:18.855Z,94477.37
2018-05-16T15:53:47.278Z,94473.77
2018-05-16T15:56:15.711Z,94467.89
2018-05-16T15:58:44.150Z,94483.31
2018-05-16T16:01:12.747Z,94480.89
2018-05-16T16:03:41.231Z,94478.38
2018-05-16T16:06:09.655Z,94487.27
2018-05-16T16:08:38.062Z,94480.52
2018-05-16T16:11:06.461Z,94492.34
2018-05-16T16:13:34.905Z,94488.08
2018-05-16T16:16:03.329Z,94484.25
2018-05-16T16:18:31.768Z,94468.98
2018-05-16T16:21:00.164Z,94494.61
2018-05-16T16:23:28.569Z,94474.61
2018-05-16T16:25:56.943Z,94473.66
2018-05-16T16:28:25.387Z,94477.28
2018-05-16T16:30:53.775Z,94474.73
2018-05-16T16:33:22.238Z,94477.31
2018-05-16T16:35:50.662Z,94477.45
2018-05-16T16:38:19.117Z,94468.67
2018-05-16T16:40:47.616Z,94467.13
2018-05-16T16:43:16.039Z,94464.98
2018-05-16T16:45:44.439Z,94473.05
2018-05-16T16:48:12.852Z,94479.92
2018-05-16T16:50:41.236Z,94474.70
2018-05-16T16:53:09.675Z,94474.61
2018-05-16T16:55:38.044Z,94468.59
2018-05-16T16:58:06.912Z,94474.20
2018-05-16T17:00:35.397Z,94474.75
2018-05-16T17:03:03.794Z,94477.45
2018-05-16T17:05:32.809Z,94487.65
2018-05-16T17:08:01.231Z,94483.89
2018-05-16T17:10:29.683Z,94496.61
2018-05-16T17:12:58.499Z,94490.57
2018-05-16T17:15:27.039Z,94493.55
2018-05-16T17:17:55.437Z,94499.73
2018-05-16T17:20:24.643Z,94496.05
2018-05-16T17:22:53.026Z,94496.47
2018-05-16T17:25:21.472Z,94468.51
2018-05-16T17:27:50.363Z,94502.89
2018-05-16T17:30:18.842Z,94517.02
2018-05-16T17:32:47.163Z,94514.71
2018-05-16T17:35:15.695Z,94525.84
2018-05-16T17:37:44.095Z,94521.55
2018-05-16T17:40:12.507Z,94522.72
2018-05-16T17:42:41.267Z,94526.90
2018-05-16T17:45:09.660Z,94519.72
2018-05-16T17:47:38.100Z,94507.14
2018-05-16T17:50:06.983Z,94491.05
2018-05-16T17:52:35.385Z,94519.50
2018-05-16T17:55:03.892Z,94522.81
2018-05-16T17:57:32.734Z,94529.95
2018-05-16T18:00:01.159Z,94534.44
2018-05-16T18:02:29.578Z,94536.83
2018-05-16T18:04:58.499Z,94519.39
2018-05-16T18:07:26.932Z,94500.88
2018-05-16T18:09:55.327Z,94536.39
2018-05-16T18:12:24.111Z,94539.80
2018-05-16T18:17:52.094Z,94527.46
2018-05-16T18:20:20.488Z,94524.72
2018-05-16T18:22:48.942Z,94523.92
2018-05-16T18:25:17.764Z,94524.95
2018-05-16T18:27:46.416Z,94548.09
2018-05-16T18:30:14.791Z,94522.88
2018-05-16T18:32:43.604Z,94551.13
2018-05-16T18:35:11.994Z,94555.56
2018-05-16T18:37:40.425Z,94562.95
2018-05-16T18:40:09.293Z,94558.70
2018-05-16T18:42:37.847Z,94534.89
2018-05-16T18:45:06.245Z,94562.14
2018-05-16T18:47:34.684Z,94552.47
2018-05-16T18:50:03.091Z,94550.39
2018-05-16T18:52:31.633Z,94553.31
2018-05-16T18:55:00.145Z,94555.81
2018-05-16T18:57:28.552Z,94569.33
2018-05-16T18:59:56.936Z,94588.24
2018-05-16T19:02:25.373Z,94584.09
2018-05-16T19:04:53.767Z,94576.22
2018-05-16T19:07:22.235Z,94572.55
2018-05-16T19:09:50.977Z,94582.49
2018-05-16T19:12:19.405Z,94576.07
2018-05-16T19:14:47.823Z,94585.02
2018-05-16T19:17:16.608Z,94584.07
2018-05-16T19:19:45.139Z,94580.08
2018-05-16T19:22:13.619Z,94580.30
2018-05-16T19:24:42.337Z,94579.06
2018-05-16T19:27:10.793Z,94575.74
2018-05-16T19:29:39.128Z,94575.44
2018-05-16T19:32:07.939Z,94571.84
2018-05-16T19:34:36.304Z,94572.13
2018-05-16T19:37:04.783Z,94576.72
2018-05-16T19:39:33.599Z,94584.28
2018-05-16T19:42:01.999Z,94597.89
2018-05-16T19:44:30.442Z,94597.77
2018-05-16T19:46:59.255Z,94607.03
2018-05-16T19:49:27.656Z,94595.23
2018-05-16T19:51:56.051Z,94597.08
2018-05-16T19:54:24.491Z,94604.16
2018-05-16T19:56:52.910Z,94607.93
2018-05-16T19:59:21.317Z,94608.75
2018-05-16T20:01:50.055Z,94605.78
2018-05-16T20:04:18.488Z,94608.89
2018-05-16T20:06:46.916Z,94615.62
2018-05-16T20:09:15.596Z,94606.54
2018-05-16T20:11:44.014Z,94610.35
2018-05-16T20:14:12.478Z,94610.88
2018-05-16T20:16:41.217Z,94605.83
2018-05-16T20:19:09.625Z,94608.59
2018-05-16T20:21:38.007Z,94605.56
2018-05-16T20:24:06.426Z,94606.16
2018-05-16T20:26:34.817Z,94609.38
2018-05-16T20:29:03.212Z,94602.94
2018-05-16T20:31:31.961Z,94595.00
2018-05-16T20:34:00.376Z,94592.56
2018-05-16T20:36:28.845Z,94600.69
2018-05-16T20:38:57.662Z,94611.78
2018-05-16T20:41:26.088Z,94586.09
2018-05-16T20:43:54.489Z,94603.52
2018-05-16T20:46:23.187Z,94601.47
2018-05-16T20:48:51.624Z,94600.48
2018-05-16T20:51:20.049Z,94598.47
2018-05-16T20:53:48.828Z,94600.71
2018-05-16T20:56:17.231Z,94602.73
2018-05-16T20:58:45.633Z,94598.99
2018-05-16T21:01:14.479Z,94582.54
2018-05-16T21:03:42.945Z,94600.88
2018-05-16T21:06:11.372Z,94598.16
2018-05-16T21:08:40.159Z,94597.16
2018-05-16T21:11:08.634Z,94595.08
2018-05-16T21:13:36.983Z,94589.03
2018-05-16T21:16:05.436Z,94586.76
2018-05-16T21:18:33.827Z,94585.59
2018-05-16T21:21:02.220Z,94586.34
2018-05-16T21:23:30.655Z,94582.37
2018-05-16T21:25:59.059Z,94580.09
2018-05-16T21:28:27.563Z,94580.17
2018-05-16T21:30:56.376Z,94574.98
2018-05-16T21:33:24.838Z,94575.64
2018-05-16T21:35:53.220Z,94576.02
2018-05-16T21:38:21.904Z,94581.11
2018-05-16T21:40:50.339Z,94587.22
2018-05-16T21:43:18.739Z,94586.36
2018-05-16T21:45:47.463Z,94586.14
2018-05-16T21:48:15.871Z,94578.16
2018-05-16T21:50:44.272Z,94578.95
2018-05-16T21:53:12.987Z,94571.70
2018-05-16T21:55:41.399Z,94584.02
2018-05-16T21:58:09.796Z,94586.59
2018-05-16T22:00:38.464Z,94577.80
2018-05-16T22:03:06.903Z,94577.91
2018-05-16T22:05:35.296Z,94583.73
2018-05-16T22:08:03.707Z,94595.94
2018-05-16T22:10:32.152Z,94589.17
2018-05-16T22:13:00.581Z,94590.98
2018-05-16T22:15:29.360Z,94593.42
2018-05-16T22:17:57.763Z,94584.09
2018-05-16T22:20:26.208Z,94568.34
2018-05-16T22:22:54.633Z,94563.27
2018-05-16T22:25:23.056Z,94558.16
2018-05-16T22:27:51.473Z,94553.72
2018-05-16T22:30:19.544Z,94550.97
2018-05-16T22:32:53.615Z,94546.80
2018-05-16T22:35:28.027Z,94528.98
2018-05-16T22:38:02.055Z,94562.20
2018-05-16T22:40:36.790Z,94557.86
2018-05-16T22:43:04.627Z,94561.53
2018-05-16T22:45:47.474Z,94565.31
2018-05-16T22:48:15.927Z,94569.33
2018-05-16T22:50:44.408Z,94570.17
2018-05-16T22:53:12.840Z,94578.03
2018-05-16T22:55:41.295Z,94571.68
2018-05-16T22:58:09.706Z,94560.32
2018-05-16T23:00:38.511Z,94561.68
2018-05-16T23:03:06.926Z,94568.91
2018-05-16T23:05:35.332Z,94570.98
2018-05-16T23:08:04.062Z,94568.16
2018-05-16T23:10:32.508Z,94568.52
2018-05-16T23:13:00.919Z,94577.71
2018-05-16T23:15:29.581Z,94583.29
2018-05-16T23:17:57.995Z,94585.99
2018-05-16T23:20:26.403Z,94591.01
2018-05-16T23:22:54.845Z,94578.27
2018-05-16T23:25:23.244Z,94562.40
2018-05-16T23:27:51.630Z,94580.08
2018-05-16T23:30:20.481Z,94580.85
2018-05-16T23:32:48.871Z,94594.14
2018-05-16T23:35:17.291Z,94593.58
2018-05-16T23:37:46.038Z,94571.87
2018-05-16T23:40:14.427Z,94559.28
2018-05-16T23:42:42.884Z,94567.13
2018-05-16T23:45:11.687Z,94568.48
2018-05-16T23:47:40.183Z,94567.01
2018-05-16T23:50:08.609Z,94559.97
2018-05-16T23:52:36.991Z,94554.75
2018-05-16T23:55:05.814Z,94549.79
2018-05-16T23:57:34.207Z,94542.23
